createdAt,value
2023-03-08T00:02:25.114Z,-0.86
2023-03-08T00:04:56.224Z,-0.89
2023-03-08T00:07:24.213Z,-0.90
2023-03-08T00:09:52.828Z,-0.93
2023-03-08T00:12:22.892Z,-0.93
2023-03-08T00:14:51.149Z,-0.94
2023-03-08T00:17:19.044Z,-0.95
2023-03-08T00:19:47.002Z,-0.95
2023-03-08T00:22:14.829Z,-0.96
2023-03-08T00:24:42.549Z,-0.95
2023-03-08T00:27:10.756Z,-0.94
2023-03-08T00:29:38.545Z,-0.94
2023-03-08T00:32:06.676Z,-0.93
2023-03-08T00:34:34.414Z,-0.91
2023-03-08T00:37:02.439Z,-0.90
2023-03-08T00:39:30.204Z,-0.89
2023-03-08T00:41:58.192Z,-0.86
2023-03-08T00:44:25.924Z,-0.82
2023-03-08T00:46:54.075Z,-0.78
2023-03-08T00:49:22.948Z,-0.73
2023-03-08T00:51:50.641Z,-0.66
2023-03-08T00:54:18.505Z,-0.62
2023-03-08T00:56:46.317Z,-0.56
2023-03-08T00:59:14.263Z,-0.54
2023-03-08T01:01:42.108Z,-0.52
2023-03-08T01:04:10.082Z,-0.51
2023-03-08T01:06:38.011Z,-0.49
2023-03-08T01:09:06.002Z,-0.48
2023-03-08T01:11:35.503Z,-0.47
2023-03-08T01:14:04.536Z,-0.47
2023-03-08T01:16:33.435Z,-0.45
2023-03-08T01:19:01.678Z,-0.42
2023-03-08T01:21:30.408Z,-0.42
2023-03-08T01:23:58.489Z,-0.42
2023-03-08T01:26:27.439Z,-0.41
2023-03-08T01:28:55.825Z,-0.40
2023-03-08T01:31:27.742Z,-0.40
2023-03-08T01:33:55.878Z,-0.41
2023-03-08T01:36:24.800Z,-0.43
2023-03-08T01:38:54.362Z,-0.43
2023-03-08T01:41:24.033Z,-0.41
2023-03-08T01:43:52.409Z,-0.41
2023-03-08T01:46:24.098Z,-0.41
2023-03-08T01:48:54.860Z,-0.40
2023-03-08T01:51:26.412Z,-0.39
2023-03-08T01:53:55.897Z,-0.37
2023-03-08T01:56:24.813Z,-0.36
2023-03-08T01:58:52.975Z,-0.33
2023-03-08T02:01:21.204Z,-0.32
2023-03-08T02:03:49.161Z,-0.32
2023-03-08T02:06:17.173Z,-0.32
2023-03-08T02:08:45.477Z,-0.32
2023-03-08T02:11:13.824Z,-0.31
2023-03-08T02:13:42.675Z,-0.31
2023-03-08T02:16:13.728Z,-0.31
2023-03-08T02:18:51.552Z,-0.33
2023-03-08T02:21:19.501Z,-0.34
2023-03-08T02:23:47.225Z,-0.35
2023-03-08T02:26:15.404Z,-0.36
2023-03-08T02:28:43.786Z,-0.38
2023-03-08T02:31:13.832Z,-0.40
2023-03-08T02:33:42.203Z,-0.41
2023-03-08T02:36:10.151Z,-0.43
2023-03-08T02:38:37.969Z,-0.43
2023-03-08T02:41:05.878Z,-0.42
2023-03-08T02:43:33.609Z,-0.41
2023-03-08T02:46:01.659Z,-0.38
2023-03-08T02:48:29.462Z,-0.34
2023-03-08T02:50:57.436Z,-0.31
2023-03-08T02:53:25.240Z,-0.28
2023-03-08T02:55:53.085Z,-0.25
2023-03-08T02:58:20.945Z,-0.22
2023-03-08T03:00:48.645Z,-0.18
2023-03-08T03:03:17.010Z,-0.16
2023-03-08T03:05:45.869Z,-0.14
2023-03-08T03:08:13.857Z,-0.13
2023-03-08T03:10:43.122Z,-0.13
2023-03-08T03:13:10.953Z,-0.12
2023-03-08T03:15:39.565Z,-0.12
2023-03-08T03:18:07.379Z,-0.10
2023-03-08T03:20:35.213Z,-0.09
2023-03-08T03:23:03.292Z,-0.08
2023-03-08T03:25:31.138Z,-0.07
2023-03-08T03:27:58.894Z,-0.05
2023-03-08T03:30:26.803Z,-0.04
2023-03-08T03:32:54.611Z,-0.04
2023-03-08T03:35:22.472Z,-0.04
2023-03-08T03:37:50.303Z,-0.04
2023-03-08T03:40:18.176Z,-0.02
2023-03-08T03:42:45.888Z,0.00
2023-03-08T03:45:13.851Z,0.03
2023-03-08T03:47:41.641Z,0.06
2023-03-08T03:50:10.086Z,0.08
2023-03-08T03:52:38.432Z,0.10
2023-03-08T03:55:06.820Z,0.11
2023-03-08T03:57:34.735Z,0.12
2023-03-08T04:00:02.529Z,0.12
2023-03-08T04:02:30.318Z,0.11
2023-03-08T04:04:58.609Z,0.10
2023-03-08T04:07:26.396Z,0.09
2023-03-08T04:09:54.267Z,0.08
2023-03-08T04:12:21.973Z,0.08
2023-03-08T04:14:49.831Z,0.09
2023-03-08T04:17:17.567Z,0.09
2023-03-08T04:19:45.396Z,0.10
2023-03-08T04:22:13.315Z,0.11
2023-03-08T04:24:41.137Z,0.13
2023-03-08T04:27:09.351Z,0.14
2023-03-08T04:29:37.214Z,0.16
2023-03-08T04:32:05.319Z,0.18
2023-03-08T04:34:33.235Z,0.21
2023-03-08T04:37:01.036Z,0.22
2023-03-08T04:39:28.767Z,0.24
2023-03-08T04:41:56.602Z,0.24
2023-03-08T04:44:24.393Z,0.26
2023-03-08T04:46:52.287Z,0.26
2023-03-08T04:49:20.348Z,0.27
2023-03-08T04:51:48.356Z,0.29
2023-03-08T04:54:16.204Z,0.31
2023-03-08T04:56:44.012Z,0.33
2023-03-08T04:59:11.743Z,0.35
2023-03-08T05:01:39.492Z,0.37
2023-03-08T05:04:10.118Z,0.37
2023-03-08T05:06:37.800Z,0.38
2023-03-08T05:09:06.318Z,0.38
2023-03-08T05:11:34.026Z,0.40
2023-03-08T05:14:01.975Z,0.40
2023-03-08T05:16:29.771Z,0.42
2023-03-08T05:18:57.867Z,0.44
2023-03-08T05:21:25.756Z,0.46
2023-03-08T05:23:53.810Z,0.47
2023-03-08T05:26:21.659Z,0.50
2023-03-08T05:28:49.540Z,0.51
2023-03-08T05:31:18.610Z,0.49
2023-03-08T05:33:49.423Z,0.49
2023-03-08T05:36:18.080Z,0.49
2023-03-08T05:38:45.922Z,0.46
2023-03-08T05:41:14.932Z,0.44
2023-03-08T05:43:42.904Z,0.41
2023-03-08T05:46:15.301Z,0.39
2023-03-08T05:48:44.632Z,0.39
2023-03-08T05:51:13.997Z,0.38
2023-03-08T05:53:42.440Z,0.37
2023-03-08T05:56:11.701Z,0.37
2023-03-08T05:58:41.488Z,0.38
2023-03-08T06:01:12.258Z,0.39
2023-03-08T06:03:40.423Z,0.40
2023-03-08T06:06:08.453Z,0.42
2023-03-08T06:08:36.267Z,0.42
2023-03-08T06:11:04.179Z,0.43
2023-03-08T06:13:32.337Z,0.43
2023-03-08T06:16:00.761Z,0.44
2023-03-08T06:18:28.758Z,0.43
2023-03-08T06:20:57.059Z,0.43
2023-03-08T06:23:25.454Z,0.43
2023-03-08T06:25:53.193Z,0.42
2023-03-08T06:28:21.977Z,0.41
2023-03-08T06:30:50.131Z,0.41
2023-03-08T06:33:18.451Z,0.41
2023-03-08T06:36:04.920Z,0.40
2023-03-08T06:38:34.221Z,0.39
2023-03-08T06:41:02.001Z,0.41
2023-03-08T06:43:30.301Z,0.42
2023-03-08T06:45:58.218Z,0.43
2023-03-08T06:48:26.146Z,0.44
2023-03-08T06:50:53.861Z,0.45
2023-03-08T06:53:21.613Z,0.45
2023-03-08T06:55:49.462Z,0.46
2023-03-08T06:58:17.267Z,0.47
2023-03-08T07:00:45.063Z,0.48
2023-03-08T07:03:14.068Z,0.50
2023-03-08T07:05:42.785Z,0.50
2023-03-08T07:08:10.516Z,0.52
2023-03-08T07:10:39.286Z,0.53
2023-03-08T07:13:07.419Z,0.55
2023-03-08T07:15:39.291Z,0.58
2023-03-08T07:18:07.119Z,0.62
2023-03-08T07:20:34.964Z,0.63
2023-03-08T07:23:04.294Z,0.65
2023-03-08T07:25:32.215Z,0.67
2023-03-08T07:28:00.355Z,0.67
2023-03-08T07:30:28.283Z,0.68
2023-03-08T07:32:56.086Z,0.67
2023-03-08T07:35:24.074Z,0.68
2023-03-08T07:37:51.866Z,0.67
2023-03-08T07:40:19.924Z,0.68
2023-03-08T07:42:47.644Z,0.72
2023-03-08T07:45:15.573Z,0.76
2023-03-08T07:47:43.337Z,0.81
2023-03-08T07:50:12.093Z,0.85
2023-03-08T07:52:39.876Z,0.89
2023-03-08T07:55:08.735Z,0.92
2023-03-08T07:57:36.428Z,0.99
2023-03-08T08:00:09.406Z,1.06
2023-03-08T08:02:37.283Z,1.10
2023-03-08T08:05:05.857Z,1.12
2023-03-08T08:07:33.604Z,1.14
2023-03-08T08:10:01.350Z,1.17
2023-03-08T08:12:29.118Z,1.23
2023-03-08T08:14:58.044Z,1.28
2023-03-08T08:17:25.947Z,1.33
2023-03-08T08:19:53.808Z,1.35
2023-03-08T08:22:21.498Z,1.38
2023-03-08T08:24:49.270Z,1.38
2023-03-08T08:27:17.004Z,1.36
2023-03-08T08:29:49.732Z,1.39
2023-03-08T08:32:17.489Z,1.44
2023-03-08T08:34:45.420Z,1.45
2023-03-08T08:37:13.129Z,1.43
2023-03-08T08:39:40.980Z,1.45
2023-03-08T08:42:08.681Z,1.49
2023-03-08T08:44:36.657Z,1.50
2023-03-08T08:47:04.620Z,1.49
2023-03-08T08:49:32.467Z,1.52
2023-03-08T08:52:00.353Z,1.55
2023-03-08T08:54:29.025Z,1.55
2023-03-08T08:56:56.886Z,1.55
2023-03-08T08:59:24.764Z,1.56
2023-03-08T09:01:52.642Z,1.58
2023-03-08T09:04:21.075Z,1.58
2023-03-08T09:06:49.076Z,1.57
2023-03-08T09:09:18.066Z,1.56
2023-03-08T09:11:54.602Z,1.59
2023-03-08T09:14:24.377Z,1.61
2023-03-08T09:16:53.187Z,1.64
2023-03-08T09:19:21.301Z,1.67
2023-03-08T09:21:49.130Z,1.70
2023-03-08T09:24:17.222Z,1.76
2023-03-08T09:26:44.952Z,1.81
2023-03-08T09:29:12.794Z,1.87
2023-03-08T09:31:42.443Z,1.96
2023-03-08T09:34:11.827Z,2.02
2023-03-08T09:36:39.913Z,2.09
2023-03-08T09:39:09.450Z,2.15
2023-03-08T09:41:37.320Z,2.22
2023-03-08T09:44:05.165Z,2.24
2023-03-08T09:46:49.107Z,2.25
2023-03-08T09:49:21.813Z,2.23
2023-03-08T09:51:52.703Z,2.19
2023-03-08T09:54:23.640Z,2.13
2023-03-08T09:56:53.486Z,2.09
2023-03-08T09:59:40.952Z,2.09
2023-03-08T10:02:38.038Z,2.09
2023-03-08T10:05:13.710Z,2.09
2023-03-08T10:07:41.930Z,2.08
2023-03-08T10:10:31.819Z,2.07
2023-03-08T10:13:17.223Z,2.08
2023-03-08T10:15:48.169Z,2.09
2023-03-08T10:18:29.431Z,2.12
2023-03-08T10:20:59.677Z,2.14
2023-03-08T10:23:29.448Z,2.17
2023-03-08T10:25:57.349Z,2.23
2023-03-08T10:28:26.629Z,2.29
2023-03-08T10:31:05.804Z,2.37
2023-03-08T10:33:35.365Z,2.44
2023-03-08T10:36:38.690Z,2.55
2023-03-08T10:39:10.262Z,2.71
2023-03-08T10:41:52.911Z,2.82
2023-03-08T10:44:41.274Z,2.95
2023-03-08T10:47:25.466Z,3.03
2023-03-08T10:50:23.036Z,3.09
2023-03-08T10:52:51.402Z,3.16
2023-03-08T10:55:21.201Z,3.21
2023-03-08T10:57:54.195Z,3.25
2023-03-08T11:00:25.385Z,3.26
2023-03-08T11:03:02.084Z,3.25
2023-03-08T11:05:31.207Z,3.23
2023-03-08T11:07:59.576Z,3.23
2023-03-08T11:10:29.577Z,3.20
2023-03-08T11:13:24.538Z,3.14
2023-03-08T11:16:12.649Z,3.08
2023-03-08T11:18:47.259Z,3.04
2023-03-08T11:21:17.963Z,3.02
2023-03-08T11:23:51.619Z,2.98
2023-03-08T11:26:24.679Z,2.96
2023-03-08T11:29:12.860Z,2.90
2023-03-08T11:32:06.926Z,2.82
2023-03-08T11:34:34.671Z,2.80
2023-03-08T11:37:14.728Z,2.79
2023-03-08T11:39:42.429Z,2.79
2023-03-08T11:42:16.263Z,2.78
2023-03-08T11:44:51.619Z,2.78
2023-03-08T11:47:25.613Z,2.73
2023-03-08T11:50:06.053Z,2.66
2023-03-08T11:52:40.071Z,2.60
2023-03-08T11:55:08.096Z,2.57
2023-03-08T11:57:40.175Z,2.55
2023-03-08T12:00:24.752Z,2.56
2023-03-08T12:02:54.239Z,2.60
2023-03-08T12:05:34.760Z,2.66
2023-03-08T12:08:02.554Z,2.72
2023-03-08T12:10:36.225Z,2.75
2023-03-08T12:13:11.871Z,2.76
2023-03-08T12:15:46.493Z,2.74
2023-03-08T12:18:32.175Z,2.71
2023-03-08T12:21:27.913Z,2.70
2023-03-08T12:24:03.851Z,2.66
2023-03-08T12:26:38.880Z,2.64
2023-03-08T12:29:17.476Z,2.60
2023-03-08T12:31:46.463Z,2.54
2023-03-08T12:34:25.071Z,2.50
2023-03-08T12:36:52.956Z,2.46
2023-03-08T12:39:28.797Z,2.46
2023-03-08T12:41:57.998Z,2.43
2023-03-08T12:44:27.349Z,2.38
2023-03-08T12:47:03.849Z,2.34
2023-03-08T12:49:40.135Z,2.33
2023-03-08T12:52:20.331Z,2.36
2023-03-08T12:54:57.486Z,2.41
2023-03-08T12:57:28.247Z,2.47
2023-03-08T13:00:01.020Z,2.51
2023-03-08T13:02:33.259Z,2.60
2023-03-08T13:05:15.905Z,2.59
2023-03-08T13:08:09.966Z,2.53
2023-03-08T13:10:53.596Z,2.57
2023-03-08T13:13:40.572Z,2.64
2023-03-08T13:16:27.162Z,2.78
2023-03-08T13:19:03.339Z,2.84
2023-03-08T13:21:35.340Z,2.88
2023-03-08T13:24:09.540Z,2.91
2023-03-08T13:26:50.960Z,2.89
2023-03-08T13:29:20.032Z,2.89
2023-03-08T13:31:48.754Z,2.88
2023-03-08T13:34:35.519Z,2.93
2023-03-08T13:37:03.703Z,2.97
2023-03-08T13:39:31.929Z,3.05
2023-03-08T13:42:12.986Z,3.15
2023-03-08T13:44:41.113Z,3.28
2023-03-08T13:47:18.805Z,3.33
2023-03-08T13:49:46.844Z,3.41
2023-03-08T13:52:23.012Z,3.43
2023-03-08T13:54:53.261Z,3.41
2023-03-08T13:57:30.497Z,3.40
2023-03-08T14:00:00.066Z,3.37
2023-03-08T14:02:30.112Z,3.32
2023-03-08T14:04:58.625Z,3.24
2023-03-08T14:07:29.209Z,3.16
2023-03-08T14:09:58.670Z,3.10
2023-03-08T14:12:31.212Z,3.00
2023-03-08T14:15:01.462Z,2.96
2023-03-08T14:17:30.966Z,2.95
2023-03-08T14:20:00.673Z,2.90
2023-03-08T14:22:39.162Z,2.81
2023-03-08T14:25:20.921Z,2.73
2023-03-08T14:27:48.713Z,2.63
2023-03-08T14:30:18.704Z,2.52
2023-03-08T14:33:12.626Z,2.43
2023-03-08T14:35:41.624Z,2.34
2023-03-08T14:38:13.812Z,2.32
2023-03-08T14:40:47.376Z,2.41
2023-03-08T14:43:19.843Z,2.58
2023-03-08T14:45:53.784Z,2.71
2023-03-08T14:48:25.861Z,2.79
2023-03-08T14:50:56.941Z,2.83
2023-03-08T14:53:45.052Z,2.85
2023-03-08T14:56:14.772Z,2.77
2023-03-08T14:58:49.359Z,2.68
2023-03-08T15:01:27.698Z,2.59
2023-03-08T15:03:55.972Z,2.52
2023-03-08T15:06:25.681Z,2.45
2023-03-08T15:08:53.581Z,2.38
2023-03-08T15:11:23.644Z,2.33
2023-03-08T15:13:51.644Z,2.32
2023-03-08T15:16:20.773Z,2.37
2023-03-08T15:18:48.808Z,2.43
2023-03-08T15:21:19.464Z,2.48
2023-03-08T15:23:49.194Z,2.49
2023-03-08T15:26:24.582Z,2.43
2023-03-08T15:28:52.392Z,2.38
2023-03-08T15:31:20.295Z,2.32
2023-03-08T15:33:48.390Z,2.28
2023-03-08T15:36:17.783Z,2.23
2023-03-08T15:38:45.695Z,2.17
2023-03-08T15:41:14.366Z,2.11
2023-03-08T15:43:42.899Z,2.07
2023-03-08T15:46:15.512Z,2.03
2023-03-08T15:48:45.759Z,2.04
2023-03-08T15:51:17.249Z,2.05
2023-03-08T15:53:45.175Z,2.05
2023-03-08T15:56:13.355Z,2.00
2023-03-08T15:58:41.270Z,1.94
2023-03-08T16:01:09.777Z,1.88
2023-03-08T16:03:38.349Z,1.86
2023-03-08T16:06:13.221Z,1.81
2023-03-08T16:08:42.322Z,1.74
2023-03-08T16:11:11.223Z,1.69
2023-03-08T16:13:40.586Z,1.67
2023-03-08T16:16:09.423Z,1.64
2023-03-08T16:18:37.270Z,1.61
2023-03-08T16:21:09.358Z,1.59
2023-03-08T16:23:38.365Z,1.58
2023-03-08T16:26:15.337Z,1.59
2023-03-08T16:28:45.862Z,1.59
2023-03-08T16:31:14.123Z,1.58
2023-03-08T16:33:42.309Z,1.57
2023-03-08T16:36:10.910Z,1.55
2023-03-08T16:38:39.211Z,1.52
2023-03-08T16:41:12.794Z,1.50
2023-03-08T16:43:47.678Z,1.49
2023-03-08T16:46:16.799Z,1.46
2023-03-08T16:48:44.688Z,1.42
2023-03-08T16:51:14.125Z,1.37
2023-03-08T16:53:42.441Z,1.33
2023-03-08T16:56:17.220Z,1.30
2023-03-08T16:58:45.366Z,1.24
2023-03-08T17:01:13.951Z,1.20
2023-03-08T17:03:42.277Z,1.15
2023-03-08T17:06:12.332Z,1.10
2023-03-08T17:08:40.968Z,1.07
2023-03-08T17:11:20.372Z,1.06
2023-03-08T17:13:51.910Z,1.05
2023-03-08T17:16:20.708Z,1.03
2023-03-08T17:18:49.564Z,1.02
2023-03-08T17:21:18.029Z,0.99
2023-03-08T17:23:45.876Z,0.97
2023-03-08T17:26:14.007Z,0.94
2023-03-08T17:28:41.825Z,0.93
2023-03-08T17:31:11.482Z,0.91
2023-03-08T17:33:40.688Z,0.89
2023-03-08T17:36:09.669Z,0.86
2023-03-08T17:38:38.051Z,0.84
2023-03-08T17:41:07.884Z,0.82
2023-03-08T17:43:38.376Z,0.80
2023-03-08T17:46:27.720Z,0.79
2023-03-08T17:48:55.931Z,0.78
2023-03-08T17:51:25.486Z,0.76
2023-03-08T17:53:54.107Z,0.74
2023-03-08T17:56:25.159Z,0.71
2023-03-08T17:58:56.720Z,0.70
2023-03-08T18:01:27.738Z,0.68
2023-03-08T18:03:55.713Z,0.67
2023-03-08T18:06:23.891Z,0.64
2023-03-08T18:08:52.471Z,0.61
2023-03-08T18:11:20.547Z,0.61
2023-03-08T18:13:49.052Z,0.58
2023-03-08T18:16:17.777Z,0.56
2023-03-08T18:18:46.200Z,0.53
2023-03-08T18:21:14.513Z,0.52
2023-03-08T18:23:43.405Z,0.51
2023-03-08T18:26:11.799Z,0.50
2023-03-08T18:28:41.110Z,0.51
2023-03-08T18:31:11.308Z,0.49
2023-03-08T18:33:39.559Z,0.48
2023-03-08T18:36:08.782Z,0.47
2023-03-08T18:38:36.882Z,0.47
2023-03-08T18:41:15.373Z,0.45
2023-03-08T18:43:43.460Z,0.44
2023-03-08T18:46:12.465Z,0.43
2023-03-08T18:48:41.328Z,0.41
2023-03-08T18:51:09.823Z,0.41
2023-03-08T18:53:38.092Z,0.40
2023-03-08T18:56:06.037Z,0.38
2023-03-08T18:58:34.197Z,0.37
2023-03-08T19:01:03.160Z,0.36
2023-03-08T19:03:31.126Z,0.34
2023-03-08T19:06:02.028Z,0.34
2023-03-08T19:08:29.796Z,0.34
2023-03-08T19:10:58.126Z,0.34
2023-03-08T19:13:26.037Z,0.32
2023-03-08T19:15:53.917Z,0.31
2023-03-08T19:18:23.598Z,0.31
2023-03-08T19:20:51.515Z,0.30
2023-03-08T19:23:19.095Z,0.31
2023-03-08T19:26:05.442Z,0.30
2023-03-08T19:28:33.637Z,0.31
2023-03-08T19:31:01.683Z,0.32
2023-03-08T19:33:31.466Z,0.32
2023-03-08T19:35:59.763Z,0.32
2023-03-08T19:38:27.800Z,0.32
2023-03-08T19:40:55.983Z,0.30
2023-03-08T19:43:23.622Z,0.28
2023-03-08T19:45:51.674Z,0.29
2023-03-08T19:48:19.307Z,0.29
2023-03-08T19:50:47.126Z,0.30
2023-03-08T19:53:14.718Z,0.29
2023-03-08T19:55:52.723Z,0.27
2023-03-08T19:58:20.880Z,0.24
2023-03-08T20:00:49.238Z,0.24
2023-03-08T20:03:17.331Z,0.22
2023-03-08T20:05:47.863Z,0.21
2023-03-08T20:08:15.560Z,0.20
2023-03-08T20:10:43.427Z,0.20
2023-03-08T20:13:12.229Z,0.18
2023-03-08T20:15:40.192Z,0.17
2023-03-08T20:18:07.763Z,0.16
2023-03-08T20:20:35.517Z,0.14
2023-03-08T20:23:03.222Z,0.13
2023-03-08T20:25:31.037Z,0.14
2023-03-08T20:27:58.693Z,0.14
2023-03-08T20:30:26.341Z,0.12
2023-03-08T20:32:53.961Z,0.10
2023-03-08T20:35:23.825Z,0.11
2023-03-08T20:37:51.754Z,0.11
2023-03-08T20:40:21.069Z,0.10
2023-03-08T20:42:48.826Z,0.10
2023-03-08T20:45:16.699Z,0.09
2023-03-08T20:47:44.539Z,0.09
2023-03-08T20:50:12.362Z,0.09
2023-03-08T20:52:39.909Z,0.09
2023-03-08T20:55:07.872Z,0.09
2023-03-08T20:57:35.989Z,0.08
2023-03-08T21:00:05.458Z,0.08
2023-03-08T21:02:33.056Z,0.08
2023-03-08T21:05:01.066Z,0.09
2023-03-08T21:07:28.677Z,0.09
2023-03-08T21:09:56.464Z,0.09
2023-03-08T21:12:24.053Z,0.08
2023-03-08T21:14:52.633Z,0.08
2023-03-08T21:17:26.130Z,0.07
2023-03-08T21:19:54.358Z,0.07
2023-03-08T21:22:21.964Z,0.08
2023-03-08T21:24:49.823Z,0.09
2023-03-08T21:27:17.499Z,0.09
2023-03-08T21:29:45.326Z,0.09
2023-03-08T21:32:13.125Z,0.10
2023-03-08T21:34:41.012Z,0.09
2023-03-08T21:37:08.693Z,0.09
2023-03-08T21:39:36.370Z,0.08
2023-03-08T21:42:04.129Z,0.10
2023-03-08T21:44:32.198Z,0.10
2023-03-08T21:46:59.837Z,0.11
2023-03-08T21:49:29.101Z,0.11
2023-03-08T21:51:58.712Z,0.11
2023-03-08T21:54:27.401Z,0.11
2023-03-08T21:56:55.402Z,0.11
2023-03-08T21:59:27.726Z,0.11
2023-03-08T22:01:58.508Z,0.11
2023-03-08T22:04:26.848Z,0.10
2023-03-08T22:06:55.799Z,0.09
2023-03-08T22:09:26.683Z,0.11
2023-03-08T22:11:54.445Z,0.12
2023-03-08T22:14:22.091Z,0.12
2023-03-08T22:16:49.674Z,0.12
2023-03-08T22:19:18.266Z,0.13
2023-03-08T22:21:45.884Z,0.13
2023-03-08T22:24:13.862Z,0.13
2023-03-08T22:26:41.509Z,0.13
2023-03-08T22:29:09.384Z,0.12
2023-03-08T22:31:37.118Z,0.13
2023-03-08T22:34:05.973Z,0.12
2023-03-08T22:36:33.902Z,0.11
2023-03-08T22:39:01.546Z,0.10
2023-03-08T22:41:29.295Z,0.09
2023-03-08T22:43:56.979Z,0.08
2023-03-08T22:46:26.083Z,0.06
2023-03-08T22:48:56.407Z,0.05
2023-03-08T22:51:24.757Z,0.05
2023-03-08T22:53:52.383Z,0.06
2023-03-08T22:56:24.360Z,0.05
2023-03-08T22:58:52.481Z,0.05
2023-03-08T23:01:22.276Z,0.05
2023-03-08T23:03:50.616Z,0.04
2023-03-08T23:06:18.606Z,0.04
2023-03-08T23:08:46.780Z,0.04
2023-03-08T23:11:14.383Z,0.04
2023-03-08T23:13:42.297Z,0.03
2023-03-08T23:16:14.433Z,0.03
2023-03-08T23:18:43.054Z,0.03
2023-03-08T23:21:11.859Z,0.02
2023-03-08T23:23:39.832Z,0.01
2023-03-08T23:26:08.561Z,0.01
2023-03-08T23:28:36.516Z,0.01
2023-03-08T23:31:15.339Z,0.02
2023-03-08T23:33:43.570Z,0.02
2023-03-08T23:36:12.594Z,0.01
2023-03-08T23:38:40.205Z,0.01
2023-03-08T23:41:08.714Z,-0.01
2023-03-08T23:43:37.355Z,0.00
2023-03-08T23:46:06.605Z,0.02
2023-03-08T23:48:34.278Z,0.02
2023-03-08T23:51:05.602Z,0.04
2023-03-08T23:53:42.149Z,0.05
2023-03-08T23:56:18.019Z,0.05
2023-03-08T23:58:47.651Z,0.05
